sensor_id;sensor_type;location;lat;lon;timestamp;pressure;altitude;pressure_sealevel;temperature;humidity
66703;BME280;60933;46.398;-63.798;2023-05-19T00:01:47;102085.19;;;10.93;47.32
66703;BME280;60933;46.398;-63.798;2023-05-19T00:04:14;102090.44;;;10.71;49.22
66703;BME280;60933;46.398;-63.798;2023-05-19T00:06:41;102101.72;;;10.56;50.59
66703;BME280;60933;46.398;-63.798;2023-05-19T00:09:09;102098.28;;;10.48;49.40
66703;BME280;60933;46.398;-63.798;2023-05-19T00:11:38;102106.03;;;10.40;50.40
66703;BME280;60933;46.398;-63.798;2023-05-19T00:14:06;102119.81;;;10.30;50.00
66703;BME280;60933;46.398;-63.798;2023-05-19T00:16:35;102119.81;;;10.22;49.58
66703;BME280;60933;46.398;-63.798;2023-05-19T00:19:03;102118.97;;;10.08;50.26
66703;BME280;60933;46.398;-63.798;2023-05-19T00:21:30;102126.69;;;10.03;49.96
66703;BME280;60933;46.398;-63.798;2023-05-19T00:23:57;102122.41;;;9.91;49.86
66703;BME280;60933;46.398;-63.798;2023-05-19T00:26:24;102128.44;;;9.76;51.96
66703;BME280;60933;46.398;-63.798;2023-05-19T00:28:52;102119.81;;;9.63;52.89
66703;BME280;60933;46.398;-63.798;2023-05-19T00:31:18;102128.38;;;9.55;53.12
66703;BME280;60933;46.398;-63.798;2023-05-19T00:33:45;102145.56;;;9.43;53.77
66703;BME280;60933;46.398;-63.798;2023-05-19T00:36:11;102158.41;;;9.39;53.01
66703;BME280;60933;46.398;-63.798;2023-05-19T00:38:37;102146.34;;;9.28;53.56
66703;BME280;60933;46.398;-63.798;2023-05-19T00:41:04;102151.50;;;9.19;55.24
66703;BME280;60933;46.398;-63.798;2023-05-19T00:43:31;102143.72;;;9.13;53.63
66703;BME280;60933;46.398;-63.798;2023-05-19T00:46:00;102160.06;;;9.12;53.21
66703;BME280;60933;46.398;-63.798;2023-05-19T00:48:26;102160.03;;;9.02;54.16
66703;BME280;60933;46.398;-63.798;2023-05-19T00:50:54;102172.88;;;8.99;55.13
66703;BME280;60933;46.398;-63.798;2023-05-19T00:53:23;102168.50;;;8.89;55.20
66703;BME280;60933;46.398;-63.798;2023-05-19T00:55:49;102184.81;;;8.83;54.63
66703;BME280;60933;46.398;-63.798;2023-05-19T00:58:16;102200.22;;;8.74;55.61
66703;BME280;60933;46.398;-63.798;2023-05-19T01:00:43;102187.28;;;8.63;56.20
66703;BME280;60933;46.398;-63.798;2023-05-19T01:03:10;102204.41;;;8.61;55.96
66703;BME280;60933;46.398;-63.798;2023-05-19T01:05:40;102207.78;;;8.54;56.50
66703;BME280;60933;46.398;-63.798;2023-05-19T01:08:07;102206.00;;;8.45;57.51
66703;BME280;60933;46.398;-63.798;2023-05-19T01:10:34;102211.97;;;8.44;56.71
66703;BME280;60933;46.398;-63.798;2023-05-19T01:13:01;102219.59;;;8.32;58.16
66703;BME280;60933;46.398;-63.798;2023-05-19T01:15:29;102219.53;;;8.22;58.53
66703;BME280;60933;46.398;-63.798;2023-05-19T01:18:04;102223.75;;;8.14;60.42
66703;BME280;60933;46.398;-63.798;2023-05-19T01:20:41;102222.88;;;8.14;57.43
66703;BME280;60933;46.398;-63.798;2023-05-19T01:26:29;102216.78;;;8.02;58.81
66703;BME280;60933;46.398;-63.798;2023-05-19T01:29:27;102231.22;;;7.91;59.43
66703;BME280;60933;46.398;-63.798;2023-05-19T01:31:58;102226.06;;;7.91;58.00
66703;BME280;60933;46.398;-63.798;2023-05-19T01:34:26;102236.31;;;7.85;59.80
66703;BME280;60933;46.398;-63.798;2023-05-19T01:36:54;102239.63;;;7.74;60.20
66703;BME280;60933;46.398;-63.798;2023-05-19T01:39:21;102241.34;;;7.75;59.86
66703;BME280;60933;46.398;-63.798;2023-05-19T01:41:48;102245.66;;;7.78;59.12
66703;BME280;60933;46.398;-63.798;2023-05-19T01:44:15;102250.78;;;7.75;60.53
66703;BME280;60933;46.398;-63.798;2023-05-19T01:46:42;102248.22;;;7.76;60.09
66703;BME280;60933;46.398;-63.798;2023-05-19T01:49:08;102249.88;;;7.71;60.00
66703;BME280;60933;46.398;-63.798;2023-05-19T01:51:34;102254.97;;;7.65;61.15
66703;BME280;60933;46.398;-63.798;2023-05-19T01:54:00;102251.50;;;7.62;59.64
66703;BME280;60933;46.398;-63.798;2023-05-19T01:57:08;102250.63;;;7.63;60.67
66703;BME280;60933;46.398;-63.798;2023-05-19T02:05:21;102269.38;;;7.55;61.34
66703;BME280;60933;46.398;-63.798;2023-05-19T02:08:09;102271.09;;;7.56;61.51
66703;BME280;60933;46.398;-63.798;2023-05-19T02:10:39;102277.84;;;7.48;61.64
66703;BME280;60933;46.398;-63.798;2023-05-19T02:13:10;102279.56;;;7.48;61.83
66703;BME280;60933;46.398;-63.798;2023-05-19T02:15:40;102283.88;;;7.49;61.21
66703;BME280;60933;46.398;-63.798;2023-05-19T02:18:10;102297.69;;;7.57;61.49
66703;BME280;60933;46.398;-63.798;2023-05-19T02:20:37;102295.97;;;7.57;61.46
66703;BME280;60933;46.398;-63.798;2023-05-19T02:23:04;102307.13;;;7.59;61.55
66703;BME280;60933;46.398;-63.798;2023-05-19T02:25:30;102310.56;;;7.60;60.80
66703;BME280;60933;46.398;-63.798;2023-05-19T02:27:57;102308.81;;;7.57;62.94
66703;BME280;60933;46.398;-63.798;2023-05-19T02:30:24;102297.63;;;7.51;62.65
66703;BME280;60933;46.398;-63.798;2023-05-19T02:32:50;102304.38;;;7.45;63.65
66703;BME280;60933;46.398;-63.798;2023-05-19T02:35:19;102298.41;;;7.48;61.74
66703;BME280;60933;46.398;-63.798;2023-05-19T02:37:45;102301.88;;;7.49;61.44
66703;BME280;60933;46.398;-63.798;2023-05-19T02:40:11;102300.91;;;7.43;63.65
66703;BME280;60933;46.398;-63.798;2023-05-19T02:42:37;102312.94;;;7.44;62.06
66703;BME280;60933;46.398;-63.798;2023-05-19T02:45:04;102305.28;;;7.48;62.80
66703;BME280;60933;46.398;-63.798;2023-05-19T02:47:30;102298.41;;;7.48;62.20
66703;BME280;60933;46.398;-63.798;2023-05-19T02:49:56;102306.19;;;7.53;62.43
66703;BME280;60933;46.398;-63.798;2023-05-19T02:52:22;102322.53;;;7.58;62.71
66703;BME280;60933;46.398;-63.798;2023-05-19T02:54:48;102302.78;;;7.54;64.65
66703;BME280;60933;46.398;-63.798;2023-05-19T02:57:15;102330.16;;;7.52;63.21
66703;BME280;60933;46.398;-63.798;2023-05-19T02:59:41;102339.53;;;7.48;62.24
66703;BME280;60933;46.398;-63.798;2023-05-19T03:02:07;102337.78;;;7.47;62.69
66703;BME280;60933;46.398;-63.798;2023-05-19T03:04:33;102331.78;;;7.45;63.86
66703;BME280;60933;46.398;-63.798;2023-05-19T03:07:06;102350.63;;;7.47;63.21
66703;BME280;60933;46.398;-63.798;2023-05-19T03:09:37;102337.66;;;7.36;63.56
66703;BME280;60933;46.398;-63.798;2023-05-19T03:12:04;102345.47;;;7.42;63.60
66703;BME280;60933;46.398;-63.798;2023-05-19T03:14:33;102355.63;;;7.35;64.63
66703;BME280;60933;46.398;-63.798;2023-05-19T03:16:59;102360.75;;;7.36;63.64
66703;BME280;60933;46.398;-63.798;2023-05-19T03:19:26;102364.28;;;7.41;63.22
66703;BME280;60933;46.398;-63.798;2023-05-19T03:21:52;102365.06;;;7.36;63.96
66703;BME280;60933;46.398;-63.798;2023-05-19T03:24:18;102367.63;;;7.37;63.07
66703;BME280;60933;46.398;-63.798;2023-05-19T03:26:44;102369.38;;;7.38;63.90
66703;BME280;60933;46.398;-63.798;2023-05-19T03:29:10;102376.25;;;7.39;63.21
66703;BME280;60933;46.398;-63.798;2023-05-19T03:31:37;102374.50;;;7.38;63.39
66703;BME280;60933;46.398;-63.798;2023-05-19T03:34:03;102371.88;;;7.34;63.75
66703;BME280;60933;46.398;-63.798;2023-05-19T03:36:29;102368.44;;;7.32;63.63
66703;BME280;60933;46.398;-63.798;2023-05-19T03:39:07;102363.28;;;7.32;63.33
66703;BME280;60933;46.398;-63.798;2023-05-19T03:41:33;102356.34;;;7.26;63.91
66703;BME280;60933;46.398;-63.798;2023-05-19T03:44:00;102369.19;;;7.26;64.01
66703;BME280;60933;46.398;-63.798;2023-05-19T03:46:26;102369.97;;;7.20;64.00
66703;BME280;60933;46.398;-63.798;2023-05-19T03:48:52;102376.84;;;7.21;63.91
66703;BME280;60933;46.398;-63.798;2023-05-19T03:51:18;102389.66;;;7.20;63.86
66703;BME280;60933;46.398;-63.798;2023-05-19T03:53:44;102381.91;;;7.18;65.21
66703;BME280;60933;46.398;-63.798;2023-05-19T03:56:10;102390.41;;;7.12;64.16
66703;BME280;60933;46.398;-63.798;2023-05-19T03:58:38;102393.69;;;7.05;65.10
66703;BME280;60933;46.398;-63.798;2023-05-19T04:01:08;102396.38;;;7.11;63.85
66703;BME280;60933;46.398;-63.798;2023-05-19T04:03:34;102400.56;;;7.06;65.07
66703;BME280;60933;46.398;-63.798;2023-05-19T04:06:00;102406.53;;;7.05;64.57
66703;BME280;60933;46.398;-63.798;2023-05-19T04:08:26;102406.56;;;7.07;64.57
66703;BME280;60933;46.398;-63.798;2023-05-19T04:10:52;102401.34;;;7.01;64.01
66703;BME280;60933;46.398;-63.798;2023-05-19T04:13:18;102423.56;;;7.00;64.73
66703;BME280;60933;46.398;-63.798;2023-05-19T04:15:44;102432.09;;;6.99;64.41
66703;BME280;60933;46.398;-63.798;2023-05-19T04:18:10;102423.47;;;6.95;66.23
66703;BME280;60933;46.398;-63.798;2023-05-19T04:20:36;102414.13;;;6.99;64.72
66703;BME280;60933;46.398;-63.798;2023-05-19T04:23:02;102419.25;;;6.97;65.09
66703;BME280;60933;46.398;-63.798;2023-05-19T04:25:29;102428.69;;;7.00;64.73
66703;BME280;60933;46.398;-63.798;2023-05-19T04:27:55;102418.34;;;6.95;64.75
66703;BME280;60933;46.398;-63.798;2023-05-19T04:30:23;102431.28;;;7.00;65.06
66703;BME280;60933;46.398;-63.798;2023-05-19T04:32:49;102422.72;;;7.01;64.51
66703;BME280;60933;46.398;-63.798;2023-05-19T04:35:15;102413.28;;;7.00;64.21
66703;BME280;60933;46.398;-63.798;2023-05-19T04:37:44;102415.69;;;6.89;66.08
66703;BME280;60933;46.398;-63.798;2023-05-19T04:40:13;102428.59;;;6.92;66.21
66703;BME280;60933;46.398;-63.798;2023-05-19T04:42:39;102413.13;;;6.91;65.24
66703;BME280;60933;46.398;-63.798;2023-05-19T04:45:10;102420.91;;;6.94;65.29
66703;BME280;60933;46.398;-63.798;2023-05-19T04:47:39;102419.19;;;6.94;65.29
66703;BME280;60933;46.398;-63.798;2023-05-19T04:50:06;102421.72;;;6.93;65.19
66703;BME280;60933;46.398;-63.798;2023-05-19T04:52:34;102432.81;;;6.90;66.05
66703;BME280;60933;46.398;-63.798;2023-05-19T04:55:00;102405.47;;;6.92;65.05
66703;BME280;60933;46.398;-63.798;2023-05-19T04:57:27;102419.09;;;6.90;65.46
66703;BME280;60933;46.398;-63.798;2023-05-19T04:59:53;102434.50;;;6.90;65.17
66703;BME280;60933;46.398;-63.798;2023-05-19T05:02:25;102426.66;;;6.80;66.51
66703;BME280;60933;46.398;-63.798;2023-05-19T05:04:54;102428.31;;;6.78;66.03
66703;BME280;60933;46.398;-63.798;2023-05-19T05:07:21;102422.34;;;6.78;65.66
66703;BME280;60933;46.398;-63.798;2023-05-19T05:09:47;102431.72;;;6.77;66.10
66703;BME280;60933;46.398;-63.798;2023-05-19T05:12:14;102427.47;;;6.78;66.16
66703;BME280;60933;46.398;-63.798;2023-05-19T05:14:41;102427.47;;;6.78;65.22
66703;BME280;60933;46.398;-63.798;2023-05-19T05:17:07;102436.00;;;6.77;65.79
66703;BME280;60933;46.398;-63.798;2023-05-19T05:19:34;102435.94;;;6.74;66.40
66703;BME280;60933;46.398;-63.798;2023-05-19T05:22:01;102432.44;;;6.70;67.92
66703;BME280;60933;46.398;-63.798;2023-05-19T05:24:27;102429.03;;;6.70;66.32
66703;BME280;60933;46.398;-63.798;2023-05-19T05:26:53;102434.22;;;6.73;66.70
66703;BME280;60933;46.398;-63.798;2023-05-19T05:29:19;102420.66;;;6.80;66.11
66703;BME280;60933;46.398;-63.798;2023-05-19T05:31:45;102420.69;;;6.81;65.46
66703;BME280;60933;46.398;-63.798;2023-05-19T05:34:12;102412.00;;;6.75;66.38
66703;BME280;60933;46.398;-63.798;2023-05-19T05:36:38;102427.34;;;6.72;67.55
66703;BME280;60933;46.398;-63.798;2023-05-19T05:39:04;102409.50;;;6.78;66.77
66703;BME280;60933;46.398;-63.798;2023-05-19T05:41:30;102434.38;;;6.82;66.85
66703;BME280;60933;46.398;-63.798;2023-05-19T05:44:02;102429.25;;;6.82;66.68
66703;BME280;60933;46.398;-63.798;2023-05-19T05:46:31;102430.91;;;6.80;67.00
66703;BME280;60933;46.398;-63.798;2023-05-19T05:48:57;102424.19;;;6.85;67.65
66703;BME280;60933;46.398;-63.798;2023-05-19T05:51:23;102435.22;;;6.82;67.35
66703;BME280;60933;46.398;-63.798;2023-05-19T05:53:53;102430.97;;;6.83;66.86
66703;BME280;60933;46.398;-63.798;2023-05-19T05:56:20;102422.38;;;6.79;66.48
66703;BME280;60933;46.398;-63.798;2023-05-19T05:58:47;102437.03;;;6.87;66.98
66703;BME280;60933;46.398;-63.798;2023-05-19T06:01:14;102413.09;;;6.88;66.51
66703;BME280;60933;46.398;-63.798;2023-05-19T06:03:41;102418.97;;;6.82;68.54
66703;BME280;60933;46.398;-63.798;2023-05-19T06:06:11;102424.09;;;6.80;67.93
66703;BME280;60933;46.398;-63.798;2023-05-19T06:08:37;102426.75;;;6.87;66.87
66703;BME280;60933;46.398;-63.798;2023-05-19T06:11:03;102431.91;;;6.87;68.04
66703;BME280;60933;46.398;-63.798;2023-05-19T06:13:35;102418.13;;;6.81;68.21
66703;BME280;60933;46.398;-63.798;2023-05-19T06:16:01;102429.25;;;6.82;67.45
66703;BME280;60933;46.398;-63.798;2023-05-19T06:18:28;102435.13;;;6.76;68.66
66703;BME280;60933;46.398;-63.798;2023-05-19T06:20:54;102423.75;;;6.62;69.72
66703;BME280;60933;46.398;-63.798;2023-05-19T06:23:20;102433.25;;;6.66;68.59
66703;BME280;60933;46.398;-63.798;2023-05-19T06:25:46;102428.94;;;6.65;68.15
66703;BME280;60933;46.398;-63.798;2023-05-19T06:28:13;102431.56;;;6.68;68.92
66703;BME280;60933;46.398;-63.798;2023-05-19T06:30:40;102443.56;;;6.69;69.70
66703;BME280;60933;46.398;-63.798;2023-05-19T06:33:06;102438.31;;;6.64;70.99
66703;BME280;60933;46.398;-63.798;2023-05-19T06:35:32;102436.56;;;6.62;69.32
66703;BME280;60933;46.398;-63.798;2023-05-19T06:37:58;102439.97;;;6.61;69.81
66703;BME280;60933;46.398;-63.798;2023-05-19T06:40:25;102433.09;;;6.60;69.63
66703;BME280;60933;46.398;-63.798;2023-05-19T06:42:51;102438.28;;;6.61;68.81
66703;BME280;60933;46.398;-63.798;2023-05-19T06:45:17;102442.66;;;6.67;69.12
66703;BME280;60933;46.398;-63.798;2023-05-19T06:47:46;102439.31;;;6.70;68.88
66703;BME280;60933;46.398;-63.798;2023-05-19T06:50:13;102443.56;;;6.69;68.97
66703;BME280;60933;46.398;-63.798;2023-05-19T06:52:39;102441.88;;;6.70;68.76
66703;BME280;60933;46.398;-63.798;2023-05-19T06:55:05;102443.56;;;6.69;69.16
66703;BME280;60933;46.398;-63.798;2023-05-19T06:57:32;102438.31;;;6.64;69.08
66703;BME280;60933;46.398;-63.798;2023-05-19T06:59:58;102449.59;;;6.71;68.98
66703;BME280;60933;46.398;-63.798;2023-05-19T07:02:24;102438.38;;;6.66;69.32
66703;BME280;60933;46.398;-63.798;2023-05-19T07:04:50;102451.13;;;6.61;70.81
66703;BME280;60933;46.398;-63.798;2023-05-19T07:07:17;102455.34;;;6.59;69.89
66703;BME280;60933;46.398;-63.798;2023-05-19T07:09:43;102452.78;;;6.59;70.66
66703;BME280;60933;46.398;-63.798;2023-05-19T07:12:09;102468.19;;;6.59;70.29
66703;BME280;60933;46.398;-63.798;2023-05-19T07:14:35;102452.84;;;6.62;68.98
66703;BME280;60933;46.398;-63.798;2023-05-19T07:17:03;102464.09;;;6.69;69.22
66703;BME280;60933;46.398;-63.798;2023-05-19T07:19:29;102463.25;;;6.70;69.36
66703;BME280;60933;46.398;-63.798;2023-05-19T07:21:55;102470.03;;;6.67;70.60
66703;BME280;60933;46.398;-63.798;2023-05-19T07:24:23;102476.88;;;6.66;69.85
66703;BME280;60933;46.398;-63.798;2023-05-19T07:26:52;102474.16;;;6.60;70.53
66703;BME280;60933;46.398;-63.798;2023-05-19T07:29:18;102494.66;;;6.58;71.09
66703;BME280;60933;46.398;-63.798;2023-05-19T07:31:44;102492.00;;;6.52;71.39
66703;BME280;60933;46.398;-63.798;2023-05-19T07:34:10;102492.84;;;6.53;70.18
66703;BME280;60933;46.398;-63.798;2023-05-19T07:36:36;102500.59;;;6.56;70.54
66703;BME280;60933;46.398;-63.798;2023-05-19T07:39:02;102500.59;;;6.54;71.32
66703;BME280;60933;46.398;-63.798;2023-05-19T07:41:28;102504.78;;;6.51;71.93
66703;BME280;60933;46.398;-63.798;2023-05-19T07:43:55;102509.94;;;6.51;69.69
66703;BME280;60933;46.398;-63.798;2023-05-19T07:46:21;102502.16;;;6.47;70.53
66703;BME280;60933;46.398;-63.798;2023-05-19T07:48:47;102497.09;;;6.51;69.26
66703;BME280;60933;46.398;-63.798;2023-05-19T07:51:13;102500.41;;;6.46;70.95
66703;BME280;60933;46.398;-63.798;2023-05-19T07:53:40;102498.69;;;6.45;70.61
66703;BME280;60933;46.398;-63.798;2023-05-19T07:56:06;102504.63;;;6.44;69.48
66703;BME280;60933;46.398;-63.798;2023-05-19T07:58:32;102514.84;;;6.41;70.09
66703;BME280;60933;46.398;-63.798;2023-05-19T08:00:59;102513.94;;;6.38;71.64
66703;BME280;60933;46.398;-63.798;2023-05-19T08:03:25;102505.31;;;6.34;71.78
66703;BME280;60933;46.398;-63.798;2023-05-19T08:05:52;102503.59;;;6.34;70.34
66703;BME280;60933;46.398;-63.798;2023-05-19T08:08:18;102518.94;;;6.31;71.85
66703;BME280;60933;46.398;-63.798;2023-05-19T08:10:45;102507.91;;;6.37;70.30
66703;BME280;60933;46.398;-63.798;2023-05-19T08:13:11;102506.13;;;6.33;71.82
66703;BME280;60933;46.398;-63.798;2023-05-19T08:15:37;102510.38;;;6.32;72.01
66703;BME280;60933;46.398;-63.798;2023-05-19T08:18:03;102515.47;;;6.29;72.08
66703;BME280;60933;46.398;-63.798;2023-05-19T08:20:30;102512.00;;;6.29;71.65
66703;BME280;60933;46.398;-63.798;2023-05-19T08:22:56;102511.94;;;6.24;73.39
66703;BME280;60933;46.398;-63.798;2023-05-19T08:25:22;102517.03;;;6.23;72.39
66703;BME280;60933;46.398;-63.798;2023-05-19T08:27:48;102521.34;;;6.25;71.52
66703;BME280;60933;46.398;-63.798;2023-05-19T08:30:14;102527.34;;;6.24;71.38
66703;BME280;60933;46.398;-63.798;2023-05-19T08:32:40;102523.84;;;6.22;71.87
66703;BME280;60933;46.398;-63.798;2023-05-19T08:35:07;102529.84;;;6.23;74.69
66703;BME280;60933;46.398;-63.798;2023-05-19T08:37:33;102517.81;;;6.20;74.39
66703;BME280;60933;46.398;-63.798;2023-05-19T08:40:01;102527.16;;;6.18;73.25
66703;BME280;60933;46.398;-63.798;2023-05-19T08:42:29;102535.75;;;6.18;72.71
66703;BME280;60933;46.398;-63.798;2023-05-19T08:45:00;102526.28;;;6.16;73.67
66703;BME280;60933;46.398;-63.798;2023-05-19T08:47:27;102531.53;;;6.21;71.45
66703;BME280;60933;46.398;-63.798;2023-05-19T08:50:01;102527.28;;;6.23;72.05
66703;BME280;60933;46.398;-63.798;2023-05-19T08:55:24;102529.00;;;6.24;71.50
66703;BME280;60933;46.398;-63.798;2023-05-19T08:57:53;102542.84;;;6.30;72.04
66703;BME280;60933;46.398;-63.798;2023-05-19T09:00:21;102532.63;;;6.32;71.80
66703;BME280;60933;46.398;-63.798;2023-05-19T09:02:48;102543.81;;;6.36;71.94
66703;BME280;60933;46.398;-63.798;2023-05-19T09:05:18;102530.13;;;6.35;71.52
66703;BME280;60933;46.398;-63.798;2023-05-19T09:07:44;102551.63;;;6.42;71.65
66703;BME280;60933;46.398;-63.798;2023-05-19T09:10:11;102533.72;;;6.43;72.03
66703;BME280;60933;46.398;-63.798;2023-05-19T09:12:44;102552.63;;;6.48;71.73
66703;BME280;60933;46.398;-63.798;2023-05-19T09:15:17;102544.94;;;6.48;71.78
66703;BME280;60933;46.398;-63.798;2023-05-19T09:17:46;102544.03;;;6.46;71.47
66703;BME280;60933;46.398;-63.798;2023-05-19T09:20:13;102547.38;;;6.42;71.81
66703;BME280;60933;46.398;-63.798;2023-05-19T09:22:44;102553.38;;;6.44;72.19
66703;BME280;60933;46.398;-63.798;2023-05-19T09:25:24;102564.56;;;6.46;72.94
66703;BME280;60933;46.398;-63.798;2023-05-19T09:27:53;102570.50;;;6.45;73.29
66703;BME280;60933;46.398;-63.798;2023-05-19T09:30:20;102564.44;;;6.42;73.23
66703;BME280;60933;46.398;-63.798;2023-05-19T09:32:46;102564.44;;;6.42;72.16
66703;BME280;60933;46.398;-63.798;2023-05-19T09:35:12;102558.50;;;6.44;72.56
66703;BME280;60933;46.398;-63.798;2023-05-19T09:37:42;102562.81;;;6.45;73.28
66703;BME280;60933;46.398;-63.798;2023-05-19T09:40:08;102564.56;;;6.46;73.34
66703;BME280;60933;46.398;-63.798;2023-05-19T09:42:39;102566.31;;;6.49;72.53
66703;BME280;60933;46.398;-63.798;2023-05-19T09:45:06;102572.34;;;6.51;73.26
66703;BME280;60933;46.398;-63.798;2023-05-19T09:47:38;102566.41;;;6.54;72.68
66703;BME280;60933;46.398;-63.798;2023-05-19T09:50:10;102578.50;;;6.58;73.49
66703;BME280;60933;46.398;-63.798;2023-05-19T09:52:37;102586.28;;;6.62;71.37
66703;BME280;60933;46.398;-63.798;2023-05-19T09:55:11;102583.75;;;6.64;72.96
66703;BME280;60933;46.398;-63.798;2023-05-19T09:57:39;102588.94;;;6.67;72.64
66703;BME280;60933;46.398;-63.798;2023-05-19T10:00:06;102588.16;;;6.70;71.85
66703;BME280;60933;46.398;-63.798;2023-05-19T10:02:46;102594.22;;;6.73;71.78
66703;BME280;60933;46.398;-63.798;2023-05-19T10:05:14;102577.94;;;6.74;71.34
66703;BME280;60933;46.398;-63.798;2023-05-19T10:07:52;102580.53;;;6.74;71.10
66703;BME280;60933;46.398;-63.798;2023-05-19T10:10:20;102593.50;;;6.80;70.87
66703;BME280;60933;46.398;-63.798;2023-05-19T10:12:47;102582.97;;;6.68;71.75
66703;BME280;60933;46.398;-63.798;2023-05-19T10:15:15;102588.19;;;6.73;71.42
66703;BME280;60933;46.398;-63.798;2023-05-19T10:17:43;102599.38;;;6.75;72.31
66703;BME280;60933;46.398;-63.798;2023-05-19T10:20:14;102602.78;;;6.75;72.21
66703;BME280;60933;46.398;-63.798;2023-05-19T10:22:42;102606.25;;;6.77;72.74
66703;BME280;60933;46.398;-63.798;2023-05-19T10:25:09;102603.81;;;6.82;72.18
66703;BME280;60933;46.398;-63.798;2023-05-19T10:30:20;102598.84;;;6.91;71.11
66703;BME280;60933;46.398;-63.798;2023-05-19T10:32:48;102604.09;;;6.97;69.65
66703;BME280;60933;46.398;-63.798;2023-05-19T10:35:18;102610.31;;;7.09;71.65
66703;BME280;60933;46.398;-63.798;2023-05-19T10:40:36;102589.00;;;7.13;71.18
66703;BME280;60933;46.398;-63.798;2023-05-19T10:45:50;102591.13;;;7.36;70.35
66703;BME280;60933;46.398;-63.798;2023-05-19T10:48:18;102599.78;;;7.41;70.74
66703;BME280;60933;46.398;-63.798;2023-05-19T10:50:45;102604.19;;;7.47;71.98
66703;BME280;60933;46.398;-63.798;2023-05-19T10:53:17;102585.41;;;7.51;70.42
66703;BME280;60933;46.398;-63.798;2023-05-19T10:55:54;102586.38;;;7.57;70.84
66703;BME280;60933;46.398;-63.798;2023-05-19T11:01:14;102579.72;;;7.69;71.10
66703;BME280;60933;46.398;-63.798;2023-05-19T11:03:51;102572.13;;;7.76;69.64
66703;BME280;60933;46.398;-63.798;2023-05-19T11:06:25;102580.06;;;7.90;68.95
66703;BME280;60933;46.398;-63.798;2023-05-19T11:08:53;102577.59;;;7.98;71.18
66703;BME280;60933;46.398;-63.798;2023-05-19T11:11:19;102574.28;;;8.05;69.74
66703;BME280;60933;46.398;-63.798;2023-05-19T11:13:47;102565.78;;;8.10;69.46
66703;BME280;60933;46.398;-63.798;2023-05-19T11:16:18;102577.97;;;8.21;70.47
66703;BME280;60933;46.398;-63.798;2023-05-19T11:18:48;102581.44;;;8.25;71.46
66703;BME280;60933;46.398;-63.798;2023-05-19T11:21:15;102569.50;;;8.30;70.83
66703;BME280;60933;46.398;-63.798;2023-05-19T11:23:41;102579.94;;;8.39;70.83
66703;BME280;60933;46.398;-63.798;2023-05-19T11:26:08;102564.56;;;8.46;70.03
66703;BME280;60933;46.398;-63.798;2023-05-19T11:28:34;102565.63;;;8.57;70.17
66703;BME280;60933;46.398;-63.798;2023-05-19T11:31:01;102578.56;;;8.66;69.71
66703;BME280;60933;46.398;-63.798;2023-05-19T11:33:32;102571.84;;;8.76;69.57
66703;BME280;60933;46.398;-63.798;2023-05-19T11:35:58;102572.78;;;8.83;71.49
66703;BME280;60933;46.398;-63.798;2023-05-19T11:38:26;102573.72;;;8.91;69.98
66703;BME280;60933;46.398;-63.798;2023-05-19T11:40:55;102572.09;;;8.99;70.08
66703;BME280;60933;46.398;-63.798;2023-05-19T11:43:22;102572.22;;;9.10;69.78
66703;BME280;60933;46.398;-63.798;2023-05-19T11:45:49;102568.91;;;9.19;70.75
66703;BME280;60933;46.398;-63.798;2023-05-19T11:48:16;102566.38;;;9.28;70.11
66703;BME280;60933;46.398;-63.798;2023-05-19T11:50:45;102567.38;;;9.40;69.70
66703;BME280;60933;46.398;-63.798;2023-05-19T11:53:12;102553.66;;;9.44;68.21
66703;BME280;60933;46.398;-63.798;2023-05-19T11:55:45;102558.09;;;9.62;68.57
66703;BME280;60933;46.398;-63.798;2023-05-19T11:58:11;102559.06;;;9.75;68.97
66703;BME280;60933;46.398;-63.798;2023-05-19T12:00:39;102562.59;;;9.86;68.55
66703;BME280;60933;46.398;-63.798;2023-05-19T12:03:06;102564.41;;;9.98;66.82
66703;BME280;60933;46.398;-63.798;2023-05-19T12:05:32;102567.91;;;10.08;68.69
66703;BME280;60933;46.398;-63.798;2023-05-19T12:08:01;102560.22;;;10.20;67.07
66703;BME280;60933;46.398;-63.798;2023-05-19T12:10:30;102570.63;;;10.34;66.89
66703;BME280;60933;46.398;-63.798;2023-05-19T12:12:56;102569.84;;;10.43;65.95
66703;BME280;60933;46.398;-63.798;2023-05-19T12:15:24;102578.56;;;10.57;66.18
66703;BME280;60933;46.398;-63.798;2023-05-19T12:18:00;102574.25;;;10.64;66.27
66703;BME280;60933;46.398;-63.798;2023-05-19T12:20:29;102577.75;;;10.77;66.06
66703;BME280;60933;46.398;-63.798;2023-05-19T12:23:00;102578.66;;;10.85;66.16
66703;BME280;60933;46.398;-63.798;2023-05-19T12:25:28;102568.34;;;10.96;66.02
66703;BME280;60933;46.398;-63.798;2023-05-19T12:28:01;102555.47;;;11.05;65.88
66703;BME280;60933;46.398;-63.798;2023-05-19T12:30:28;102564.97;;;11.17;66.36
66703;BME280;60933;46.398;-63.798;2023-05-19T12:32:55;102563.22;;;11.24;65.71
66703;BME280;60933;46.398;-63.798;2023-05-19T12:35:41;102559.81;;;11.39;65.88
66703;BME280;60933;46.398;-63.798;2023-05-19T12:38:07;102556.38;;;11.51;65.13
66703;BME280;60933;46.398;-63.798;2023-05-19T12:40:34;102555.50;;;11.60;65.08
66703;BME280;60933;46.398;-63.798;2023-05-19T12:43:00;102563.25;;;11.69;64.93
66703;BME280;60933;46.398;-63.798;2023-05-19T12:45:27;102562.41;;;11.81;64.75
66703;BME280;60933;46.398;-63.798;2023-05-19T12:47:53;102558.06;;;11.91;64.97
66703;BME280;60933;46.398;-63.798;2023-05-19T12:50:19;102549.47;;;11.95;63.96
66703;BME280;60933;46.398;-63.798;2023-05-19T12:52:48;102554.63;;;12.10;63.69
66703;BME280;60933;46.398;-63.798;2023-05-19T12:55:18;102547.69;;;12.18;63.24
66703;BME280;60933;46.398;-63.798;2023-05-19T12:57:49;102557.16;;;12.29;63.24
66703;BME280;60933;46.398;-63.798;2023-05-19T13:00:21;102558.00;;;12.40;63.31
66703;BME280;60933;46.398;-63.798;2023-05-19T13:02:59;102551.03;;;12.55;62.95
66703;BME280;60933;46.398;-63.798;2023-05-19T13:05:31;102551.78;;;12.72;62.60